sensor_id;sensor_type;location;lat;lon;timestamp;temperature;humidity
26304;DHT22;57113;48.680;8.890;2022-08-20T00:00:41;23.90;92.00
26304;DHT22;57113;48.680;8.890;2022-08-20T00:03:16;23.90;92.00
26304;DHT22;57113;48.680;8.890;2022-08-20T00:05:48;23.90;92.10
26304;DHT22;57113;48.680;8.890;2022-08-20T00:08:16;23.90;92.00
26304;DHT22;57113;48.680;8.890;2022-08-20T00:10:44;23.90;92.40
26304;DHT22;57113;48.680;8.890;2022-08-20T00:13:16;23.90;92.10
26304;DHT22;57113;48.680;8.890;2022-08-20T00:15:42;23.90;92.10
26304;DHT22;57113;48.680;8.890;2022-08-20T00:18:08;23.90;92.00
26304;DHT22;57113;48.680;8.890;2022-08-20T00:20:44;23.90;92.10
26304;DHT22;57113;48.680;8.890;2022-08-20T00:23:10;23.90;92.10
26304;DHT22;57113;48.680;8.890;2022-08-20T00:25:36;23.90;92.10
26304;DHT22;57113;48.680;8.890;2022-08-20T00:28:03;23.90;92.10
26304;DHT22;57113;48.680;8.890;2022-08-20T00:30:31;23.90;92.10
26304;DHT22;57113;48.680;8.890;2022-08-20T00:33:02;23.90;92.10
26304;DHT22;57113;48.680;8.890;2022-08-20T00:35:30;23.90;92.10
26304;DHT22;57113;48.680;8.890;2022-08-20T00:37:57;23.80;92.10
26304;DHT22;57113;48.680;8.890;2022-08-20T00:40:28;23.80;92.50
26304;DHT22;57113;48.680;8.890;2022-08-20T00:42:57;23.80;92.20
26304;DHT22;57113;48.680;8.890;2022-08-20T00:45:29;23.90;92.20
26304;DHT22;57113;48.680;8.890;2022-08-20T00:47:56;23.90;92.20
26304;DHT22;57113;48.680;8.890;2022-08-20T00:50:27;23.90;92.20
26304;DHT22;57113;48.680;8.890;2022-08-20T00:52:55;23.80;92.20
26304;DHT22;57113;48.680;8.890;2022-08-20T00:55:23;23.80;92.20
26304;DHT22;57113;48.680;8.890;2022-08-20T00:57:52;23.80;92.20
26304;DHT22;57113;48.680;8.890;2022-08-20T01:00:32;23.80;92.20
26304;DHT22;57113;48.680;8.890;2022-08-20T01:02:58;23.80;92.30
26304;DHT22;57113;48.680;8.890;2022-08-20T01:05:25;23.80;92.30
26304;DHT22;57113;48.680;8.890;2022-08-20T01:07:51;23.80;92.30
26304;DHT22;57113;48.680;8.890;2022-08-20T01:10:25;23.80;92.30
26304;DHT22;57113;48.680;8.890;2022-08-20T01:12:54;23.80;92.30
26304;DHT22;57113;48.680;8.890;2022-08-20T01:15:24;23.80;92.30
26304;DHT22;57113;48.680;8.890;2022-08-20T01:17:53;23.80;92.40
26304;DHT22;57113;48.680;8.890;2022-08-20T01:20:47;23.70;92.40
26304;DHT22;57113;48.680;8.890;2022-08-20T01:31:06;23.80;92.40
26304;DHT22;57113;48.680;8.890;2022-08-20T01:33:32;23.80;92.40
26304;DHT22;57113;48.680;8.890;2022-08-20T01:35:58;23.80;92.50
26304;DHT22;57113;48.680;8.890;2022-08-20T01:38:26;23.80;92.50
26304;DHT22;57113;48.680;8.890;2022-08-20T01:43:50;23.70;92.40
26304;DHT22;57113;48.680;8.890;2022-08-20T01:46:25;23.70;92.50
26304;DHT22;57113;48.680;8.890;2022-08-20T01:48:52;23.70;92.50
26304;DHT22;57113;48.680;8.890;2022-08-20T01:51:24;23.70;92.80
26304;DHT22;57113;48.680;8.890;2022-08-20T01:53:52;23.70;92.50
26304;DHT22;57113;48.680;8.890;2022-08-20T01:56:24;23.70;92.50
26304;DHT22;57113;48.680;8.890;2022-08-20T01:58:52;23.70;92.50
26304;DHT22;57113;48.680;8.890;2022-08-20T02:03:50;23.70;92.50
26304;DHT22;57113;48.680;8.890;2022-08-20T02:06:16;23.70;92.50
26304;DHT22;57113;48.680;8.890;2022-08-20T02:08:42;23.70;92.50
26304;DHT22;57113;48.680;8.890;2022-08-20T02:11:09;23.70;92.50
26304;DHT22;57113;48.680;8.890;2022-08-20T02:13:35;23.70;92.60
26304;DHT22;57113;48.680;8.890;2022-08-20T02:16:01;23.70;92.50
26304;DHT22;57113;48.680;8.890;2022-08-20T02:18:27;23.70;92.50
26304;DHT22;57113;48.680;8.890;2022-08-20T02:20:53;23.70;92.60
26304;DHT22;57113;48.680;8.890;2022-08-20T02:23:18;23.70;92.50
26304;DHT22;57113;48.680;8.890;2022-08-20T02:25:46;23.70;92.60
26304;DHT22;57113;48.680;8.890;2022-08-20T02:28:14;23.70;92.60
26304;DHT22;57113;48.680;8.890;2022-08-20T02:30:44;23.70;92.60
26304;DHT22;57113;48.680;8.890;2022-08-20T02:33:13;23.70;92.60
26304;DHT22;57113;48.680;8.890;2022-08-20T02:35:40;23.70;92.60
26304;DHT22;57113;48.680;8.890;2022-08-20T02:38:08;23.70;92.60
26304;DHT22;57113;48.680;8.890;2022-08-20T02:40:33;23.70;92.60
26304;DHT22;57113;48.680;8.890;2022-08-20T02:43:01;23.70;92.60
26304;DHT22;57113;48.680;8.890;2022-08-20T02:45:29;23.70;92.70
26304;DHT22;57113;48.680;8.890;2022-08-20T02:47:55;23.70;92.60
26304;DHT22;57113;48.680;8.890;2022-08-20T02:50:24;23.70;92.70
26304;DHT22;57113;48.680;8.890;2022-08-20T02:52:50;23.70;92.60
26304;DHT22;57113;48.680;8.890;2022-08-20T02:55:16;23.70;92.70
26304;DHT22;57113;48.680;8.890;2022-08-20T02:57:42;23.60;92.60
26304;DHT22;57113;48.680;8.890;2022-08-20T03:00:12;23.70;92.70
26304;DHT22;57113;48.680;8.890;2022-08-20T03:02:38;23.70;92.70
26304;DHT22;57113;48.680;8.890;2022-08-20T03:05:05;23.70;92.70
26304;DHT22;57113;48.680;8.890;2022-08-20T03:07:30;23.70;92.60
26304;DHT22;57113;48.680;8.890;2022-08-20T03:09:56;23.70;92.60
26304;DHT22;57113;48.680;8.890;2022-08-20T03:12:22;23.70;92.60
26304;DHT22;57113;48.680;8.890;2022-08-20T03:14:47;23.70;92.60
26304;DHT22;57113;48.680;8.890;2022-08-20T03:17:13;23.70;92.60
26304;DHT22;57113;48.680;8.890;2022-08-20T03:19:38;23.70;92.60
26304;DHT22;57113;48.680;8.890;2022-08-20T03:22:04;23.70;92.60
26304;DHT22;57113;48.680;8.890;2022-08-20T03:24:30;23.70;92.60
26304;DHT22;57113;48.680;8.890;2022-08-20T03:26:55;23.70;92.60
26304;DHT22;57113;48.680;8.890;2022-08-20T03:29:21;23.70;92.60
26304;DHT22;57113;48.680;8.890;2022-08-20T03:31:47;23.70;92.60
26304;DHT22;57113;48.680;8.890;2022-08-20T03:34:12;23.60;92.70
26304;DHT22;57113;48.680;8.890;2022-08-20T03:36:38;23.60;92.60
26304;DHT22;57113;48.680;8.890;2022-08-20T03:39:06;23.60;92.70
26304;DHT22;57113;48.680;8.890;2022-08-20T03:41:36;23.60;92.70
26304;DHT22;57113;48.680;8.890;2022-08-20T03:44:02;23.60;92.70
26304;DHT22;57113;48.680;8.890;2022-08-20T03:46:27;23.70;92.70
26304;DHT22;57113;48.680;8.890;2022-08-20T03:48:54;23.60;92.70
26304;DHT22;57113;48.680;8.890;2022-08-20T03:51:19;23.60;92.70
26304;DHT22;57113;48.680;8.890;2022-08-20T03:53:45;23.60;92.70
26304;DHT22;57113;48.680;8.890;2022-08-20T03:56:11;23.60;92.70
26304;DHT22;57113;48.680;8.890;2022-08-20T03:58:36;23.60;92.70
26304;DHT22;57113;48.680;8.890;2022-08-20T04:01:04;23.60;92.70
26304;DHT22;57113;48.680;8.890;2022-08-20T04:03:30;23.60;92.70
26304;DHT22;57113;48.680;8.890;2022-08-20T04:05:56;23.60;92.70
26304;DHT22;57113;48.680;8.890;2022-08-20T04:08:25;23.60;92.70
26304;DHT22;57113;48.680;8.890;2022-08-20T04:10:53;23.60;92.70
26304;DHT22;57113;48.680;8.890;2022-08-20T04:13:22;23.60;92.70
26304;DHT22;57113;48.680;8.890;2022-08-20T04:15:48;23.60;93.10
26304;DHT22;57113;48.680;8.890;2022-08-20T04:18:15;23.60;92.70
26304;DHT22;57113;48.680;8.890;2022-08-20T04:20:46;23.60;92.70
26304;DHT22;57113;48.680;8.890;2022-08-20T04:23:12;23.60;92.80
26304;DHT22;57113;48.680;8.890;2022-08-20T04:25:39;23.60;93.10
26304;DHT22;57113;48.680;8.890;2022-08-20T04:28:09;23.60;92.80
26304;DHT22;57113;48.680;8.890;2022-08-20T04:30:35;23.60;92.80
26304;DHT22;57113;48.680;8.890;2022-08-20T04:33:01;23.60;92.80
26304;DHT22;57113;48.680;8.890;2022-08-20T04:35:28;23.60;92.80
26304;DHT22;57113;48.680;8.890;2022-08-20T04:38:00;23.60;92.80
26304;DHT22;57113;48.680;8.890;2022-08-20T04:40:26;23.60;92.80
26304;DHT22;57113;48.680;8.890;2022-08-20T04:43:11;23.60;92.80
26304;DHT22;57113;48.680;8.890;2022-08-20T04:45:36;23.60;92.80
26304;DHT22;57113;48.680;8.890;2022-08-20T04:48:03;23.60;92.80
26304;DHT22;57113;48.680;8.890;2022-08-20T04:50:31;23.60;92.80
26304;DHT22;57113;48.680;8.890;2022-08-20T04:53:05;23.60;92.80
26304;DHT22;57113;48.680;8.890;2022-08-20T04:55:31;23.60;92.90
26304;DHT22;57113;48.680;8.890;2022-08-20T04:58:06;23.60;92.90
26304;DHT22;57113;48.680;8.890;2022-08-20T05:00:32;23.60;92.90
26304;DHT22;57113;48.680;8.890;2022-08-20T05:02:58;23.60;92.90
26304;DHT22;57113;48.680;8.890;2022-08-20T05:05:24;23.50;92.90
26304;DHT22;57113;48.680;8.890;2022-08-20T05:07:51;23.60;92.90
26304;DHT22;57113;48.680;8.890;2022-08-20T05:10:18;23.60;93.00
26304;DHT22;57113;48.680;8.890;2022-08-20T05:12:44;23.50;92.90
26304;DHT22;57113;48.680;8.890;2022-08-20T05:15:11;23.50;93.00
26304;DHT22;57113;48.680;8.890;2022-08-20T05:17:39;23.50;93.00
26304;DHT22;57113;48.680;8.890;2022-08-20T05:20:11;23.50;93.00
26304;DHT22;57113;48.680;8.890;2022-08-20T05:22:37;23.50;93.00
26304;DHT22;57113;48.680;8.890;2022-08-20T05:25:03;23.50;93.00
26304;DHT22;57113;48.680;8.890;2022-08-20T05:27:30;23.50;93.40
26304;DHT22;57113;48.680;8.890;2022-08-20T05:30:01;23.50;93.00
26304;DHT22;57113;48.680;8.890;2022-08-20T05:32:31;23.50;93.10
26304;DHT22;57113;48.680;8.890;2022-08-20T05:34:58;23.50;93.10
26304;DHT22;57113;48.680;8.890;2022-08-20T05:37:25;23.50;93.10
26304;DHT22;57113;48.680;8.890;2022-08-20T05:39:51;23.50;93.10
26304;DHT22;57113;48.680;8.890;2022-08-20T05:42:16;23.50;93.10
26304;DHT22;57113;48.680;8.890;2022-08-20T05:44:42;23.50;93.10
26304;DHT22;57113;48.680;8.890;2022-08-20T05:47:09;23.50;93.10
26304;DHT22;57113;48.680;8.890;2022-08-20T05:49:36;23.50;93.20
26304;DHT22;57113;48.680;8.890;2022-08-20T05:52:03;23.50;93.20
26304;DHT22;57113;48.680;8.890;2022-08-20T05:54:30;23.40;93.20
26304;DHT22;57113;48.680;8.890;2022-08-20T05:56:55;23.50;93.20
26304;DHT22;57113;48.680;8.890;2022-08-20T05:59:22;23.40;93.20
26304;DHT22;57113;48.680;8.890;2022-08-20T06:01:48;23.40;93.20
26304;DHT22;57113;48.680;8.890;2022-08-20T06:04:14;23.40;93.20
26304;DHT22;57113;48.680;8.890;2022-08-20T06:06:50;23.40;93.20
26304;DHT22;57113;48.680;8.890;2022-08-20T06:09:19;23.40;93.30
26304;DHT22;57113;48.680;8.890;2022-08-20T06:11:45;23.40;93.30
26304;DHT22;57113;48.680;8.890;2022-08-20T06:14:11;23.40;93.30
26304;DHT22;57113;48.680;8.890;2022-08-20T06:16:36;23.40;93.30
26304;DHT22;57113;48.680;8.890;2022-08-20T06:19:02;23.40;93.30
26304;DHT22;57113;48.680;8.890;2022-08-20T06:21:28;23.40;93.30
26304;DHT22;57113;48.680;8.890;2022-08-20T06:23:54;23.40;93.30
26304;DHT22;57113;48.680;8.890;2022-08-20T06:26:19;23.40;93.30
26304;DHT22;57113;48.680;8.890;2022-08-20T06:28:45;23.40;93.30
26304;DHT22;57113;48.680;8.890;2022-08-20T06:31:11;23.40;93.40
26304;DHT22;57113;48.680;8.890;2022-08-20T06:33:36;23.40;93.40
26304;DHT22;57113;48.680;8.890;2022-08-20T06:36:03;23.40;93.40
26304;DHT22;57113;48.680;8.890;2022-08-20T06:38:29;23.40;93.40
26304;DHT22;57113;48.680;8.890;2022-08-20T06:40:57;23.40;93.40
26304;DHT22;57113;48.680;8.890;2022-08-20T06:43:22;23.40;93.40
26304;DHT22;57113;48.680;8.890;2022-08-20T06:45:48;23.40;93.40
26304;DHT22;57113;48.680;8.890;2022-08-20T06:48:14;23.40;93.40
26304;DHT22;57113;48.680;8.890;2022-08-20T06:50:42;23.40;93.50
26304;DHT22;57113;48.680;8.890;2022-08-20T06:53:10;23.40;93.50
26304;DHT22;57113;48.680;8.890;2022-08-20T06:55:39;23.40;93.60
26304;DHT22;57113;48.680;8.890;2022-08-20T06:58:08;23.40;93.60
26304;DHT22;57113;48.680;8.890;2022-08-20T07:00:36;23.40;93.60
26304;DHT22;57113;48.680;8.890;2022-08-20T07:03:02;23.40;93.60
26304;DHT22;57113;48.680;8.890;2022-08-20T07:05:34;23.40;93.60
26304;DHT22;57113;48.680;8.890;2022-08-20T07:08:00;23.40;93.70
26304;DHT22;57113;48.680;8.890;2022-08-20T07:10:27;23.40;93.70
26304;DHT22;57113;48.680;8.890;2022-08-20T07:12:53;23.40;93.70
26304;DHT22;57113;48.680;8.890;2022-08-20T07:15:21;23.40;93.60
26304;DHT22;57113;48.680;8.890;2022-08-20T07:17:49;23.40;93.70
26304;DHT22;57113;48.680;8.890;2022-08-20T07:20:15;23.40;93.70
26304;DHT22;57113;48.680;8.890;2022-08-20T07:22:41;23.40;93.70
26304;DHT22;57113;48.680;8.890;2022-08-20T07:25:10;23.40;93.60
26304;DHT22;57113;48.680;8.890;2022-08-20T07:27:37;23.40;93.70
26304;DHT22;57113;48.680;8.890;2022-08-20T07:30:06;23.40;93.70
26304;DHT22;57113;48.680;8.890;2022-08-20T07:32:51;23.40;93.60
26304;DHT22;57113;48.680;8.890;2022-08-20T07:35:17;23.40;94.00
26304;DHT22;57113;48.680;8.890;2022-08-20T07:37:48;23.20;94.20
26304;DHT22;57113;48.680;8.890;2022-08-20T07:40:21;23.20;94.30
26304;DHT22;57113;48.680;8.890;2022-08-20T07:42:47;23.30;94.30
26304;DHT22;57113;48.680;8.890;2022-08-20T07:45:16;23.30;94.20
26304;DHT22;57113;48.680;8.890;2022-08-20T07:47:44;23.40;94.20
26304;DHT22;57113;48.680;8.890;2022-08-20T07:50:14;23.40;94.10
26304;DHT22;57113;48.680;8.890;2022-08-20T07:52:40;23.40;94.10
26304;DHT22;57113;48.680;8.890;2022-08-20T07:55:08;23.40;94.10
26304;DHT22;57113;48.680;8.890;2022-08-20T07:57:36;23.40;94.00
26304;DHT22;57113;48.680;8.890;2022-08-20T08:00:04;23.40;94.00
26304;DHT22;57113;48.680;8.890;2022-08-20T08:02:30;23.40;94.30
26304;DHT22;57113;48.680;8.890;2022-08-20T08:04:56;23.40;93.90
26304;DHT22;57113;48.680;8.890;2022-08-20T08:07:22;23.40;93.90
26304;DHT22;57113;48.680;8.890;2022-08-20T08:09:48;23.40;93.90
26304;DHT22;57113;48.680;8.890;2022-08-20T08:12:15;23.40;94.10
26304;DHT22;57113;48.680;8.890;2022-08-20T08:14:43;23.30;94.30
26304;DHT22;57113;48.680;8.890;2022-08-20T08:17:10;23.30;94.30
26304;DHT22;57113;48.680;8.890;2022-08-20T08:19:41;23.40;94.30
26304;DHT22;57113;48.680;8.890;2022-08-20T08:22:10;23.40;94.20
26304;DHT22;57113;48.680;8.890;2022-08-20T08:24:37;23.40;94.20
26304;DHT22;57113;48.680;8.890;2022-08-20T08:27:03;23.40;94.10
26304;DHT22;57113;48.680;8.890;2022-08-20T08:29:29;23.40;94.10
26304;DHT22;57113;48.680;8.890;2022-08-20T08:31:55;23.50;94.00
26304;DHT22;57113;48.680;8.890;2022-08-20T08:34:21;23.50;94.00
26304;DHT22;57113;48.680;8.890;2022-08-20T08:36:50;23.50;94.00
26304;DHT22;57113;48.680;8.890;2022-08-20T08:39:16;23.50;94.00
26304;DHT22;57113;48.680;8.890;2022-08-20T08:41:45;23.50;93.90
26304;DHT22;57113;48.680;8.890;2022-08-20T08:44:38;23.50;93.90
26304;DHT22;57113;48.680;8.890;2022-08-20T08:47:07;23.60;93.90
26304;DHT22;57113;48.680;8.890;2022-08-20T08:49:43;23.60;93.80
26304;DHT22;57113;48.680;8.890;2022-08-20T08:52:14;23.50;93.80
26304;DHT22;57113;48.680;8.890;2022-08-20T08:54:49;23.50;93.80
26304;DHT22;57113;48.680;8.890;2022-08-20T08:57:16;23.50;93.80
26304;DHT22;57113;48.680;8.890;2022-08-20T08:59:44;23.50;93.80
26304;DHT22;57113;48.680;8.890;2022-08-20T09:02:19;23.50;93.80
26304;DHT22;57113;48.680;8.890;2022-08-20T09:04:46;23.50;93.70
26304;DHT22;57113;48.680;8.890;2022-08-20T09:07:13;23.50;94.10
26304;DHT22;57113;48.680;8.890;2022-08-20T09:09:42;23.60;93.70
26304;DHT22;57113;48.680;8.890;2022-08-20T09:12:12;23.60;93.60
26304;DHT22;57113;48.680;8.890;2022-08-20T09:14:39;23.60;93.60
26304;DHT22;57113;48.680;8.890;2022-08-20T09:17:05;23.60;93.60
26304;DHT22;57113;48.680;8.890;2022-08-20T09:19:31;23.60;93.60
26304;DHT22;57113;48.680;8.890;2022-08-20T09:21:57;23.60;93.60
26304;DHT22;57113;48.680;8.890;2022-08-20T09:24:23;23.60;93.60
26304;DHT22;57113;48.680;8.890;2022-08-20T09:26:49;23.60;93.60
26304;DHT22;57113;48.680;8.890;2022-08-20T09:29:14;23.60;93.50
26304;DHT22;57113;48.680;8.890;2022-08-20T09:31:40;23.60;93.50
26304;DHT22;57113;48.680;8.890;2022-08-20T09:34:06;23.60;93.50
26304;DHT22;57113;48.680;8.890;2022-08-20T09:36:32;23.60;93.50
26304;DHT22;57113;48.680;8.890;2022-08-20T09:38:57;23.60;93.50
26304;DHT22;57113;48.680;8.890;2022-08-20T09:41:23;23.60;93.50
26304;DHT22;57113;48.680;8.890;2022-08-20T09:43:49;23.60;93.50
26304;DHT22;57113;48.680;8.890;2022-08-20T09:46:15;23.60;93.40
26304;DHT22;57113;48.680;8.890;2022-08-20T09:48:40;23.70;93.40
26304;DHT22;57113;48.680;8.890;2022-08-20T09:51:06;23.70;93.40
26304;DHT22;57113;48.680;8.890;2022-08-20T09:53:32;23.70;93.40
26304;DHT22;57113;48.680;8.890;2022-08-20T09:55:58;23.70;93.40
26304;DHT22;57113;48.680;8.890;2022-08-20T09:58:57;23.70;93.40
26304;DHT22;57113;48.680;8.890;2022-08-20T10:01:22;23.70;93.30
26304;DHT22;57113;48.680;8.890;2022-08-20T10:03:49;23.70;93.30
26304;DHT22;57113;48.680;8.890;2022-08-20T10:06:16;23.70;93.30
26304;DHT22;57113;48.680;8.890;2022-08-20T10:08:43;23.70;93.30
26304;DHT22;57113;48.680;8.890;2022-08-20T10:11:09;23.80;93.30
26304;DHT22;57113;48.680;8.890;2022-08-20T10:13:35;23.80;93.30
26304;DHT22;57113;48.680;8.890;2022-08-20T10:16:01;23.80;93.40
26304;DHT22;57113;48.680;8.890;2022-08-20T10:18:26;23.70;93.30
26304;DHT22;57113;48.680;8.890;2022-08-20T10:20:52;23.80;93.30
26304;DHT22;57113;48.680;8.890;2022-08-20T10:23:18;23.80;93.30
26304;DHT22;57113;48.680;8.890;2022-08-20T10:25:43;23.80;93.40
26304;DHT22;57113;48.680;8.890;2022-08-20T10:28:09;23.70;93.40
26304;DHT22;57113;48.680;8.890;2022-08-20T10:30:35;23.80;93.40
26304;DHT22;57113;48.680;8.890;2022-08-20T10:33:01;23.70;93.40
26304;DHT22;57113;48.680;8.890;2022-08-20T10:35:27;23.80;93.40
26304;DHT22;57113;48.680;8.890;2022-08-20T10:37:52;23.80;93.40
26304;DHT22;57113;48.680;8.890;2022-08-20T10:40:18;23.70;93.40
26304;DHT22;57113;48.680;8.890;2022-08-20T10:42:44;23.80;93.40
26304;DHT22;57113;48.680;8.890;2022-08-20T10:45:11;23.70;93.40
26304;DHT22;57113;48.680;8.890;2022-08-20T10:47:37;23.70;93.50
26304;DHT22;57113;48.680;8.890;2022-08-20T10:50:07;23.80;93.50
26304;DHT22;57113;48.680;8.890;2022-08-20T10:52:33;23.80;93.50
26304;DHT22;57113;48.680;8.890;2022-08-20T10:54:59;23.80;93.60
26304;DHT22;57113;48.680;8.890;2022-08-20T10:57:27;23.80;93.60
26304;DHT22;57113;48.680;8.890;2022-08-20T10:59:54;23.70;93.50
26304;DHT22;57113;48.680;8.890;2022-08-20T11:02:22;23.70;93.50
26304;DHT22;57113;48.680;8.890;2022-08-20T11:04:48;23.70;93.60
26304;DHT22;57113;48.680;8.890;2022-08-20T11:07:18;23.70;93.60
26304;DHT22;57113;48.680;8.890;2022-08-20T11:09:46;23.70;93.60
26304;DHT22;57113;48.680;8.890;2022-08-20T11:12:12;23.70;93.60
26304;DHT22;57113;48.680;8.890;2022-08-20T11:14:38;23.70;93.70
26304;DHT22;57113;48.680;8.890;2022-08-20T11:17:04;23.70;93.70
26304;DHT22;57113;48.680;8.890;2022-08-20T11:19:31;23.70;93.70
26304;DHT22;57113;48.680;8.890;2022-08-20T11:24:23;23.70;93.60
26304;DHT22;57113;48.680;8.890;2022-08-20T11:26:50;23.70;93.60
26304;DHT22;57113;48.680;8.890;2022-08-20T11:29:18;23.70;93.70
26304;DHT22;57113;48.680;8.890;2022-08-20T11:31:45;23.70;93.70
26304;DHT22;57113;48.680;8.890;2022-08-20T11:34:10;23.70;93.60
26304;DHT22;57113;48.680;8.890;2022-08-20T11:36:36;23.70;93.70
26304;DHT22;57113;48.680;8.890;2022-08-20T11:39:03;23.80;93.70
26304;DHT22;57113;48.680;8.890;2022-08-20T11:41:28;23.80;93.70
26304;DHT22;57113;48.680;8.890;2022-08-20T11:43:54;23.80;93.60
26304;DHT22;57113;48.680;8.890;2022-08-20T11:46:20;23.90;93.60
26304;DHT22;57113;48.680;8.890;2022-08-20T11:48:46;23.80;93.60
26304;DHT22;57113;48.680;8.890;2022-08-20T11:51:11;23.90;93.50
26304;DHT22;57113;48.680;8.890;2022-08-20T11:53:37;23.90;93.60
26304;DHT22;57113;48.680;8.890;2022-08-20T11:56:03;23.90;93.50
26304;DHT22;57113;48.680;8.890;2022-08-20T11:58:28;23.90;93.60
26304;DHT22;57113;48.680;8.890;2022-08-20T12:00:54;23.90;93.60
26304;DHT22;57113;48.680;8.890;2022-08-20T12:03:20;23.90;93.60
26304;DHT22;57113;48.680;8.890;2022-08-20T12:05:45;23.80;93.60
26304;DHT22;57113;48.680;8.890;2022-08-20T12:08:14;23.90;93.60
26304;DHT22;57113;48.680;8.890;2022-08-20T12:10:40;23.90;93.60
26304;DHT22;57113;48.680;8.890;2022-08-20T12:13:06;23.90;93.60
26304;DHT22;57113;48.680;8.890;2022-08-20T12:15:35;23.90;93.50
26304;DHT22;57113;48.680;8.890;2022-08-20T12:18:08;23.90;93.50
26304;DHT22;57113;48.680;8.890;2022-08-20T12:20:34;23.90;93.50
26304;DHT22;57113;48.680;8.890;2022-08-20T12:23:00;23.90;93.50
26304;DHT22;57113;48.680;8.890;2022-08-20T12:25:26;23.90;93.50
26304;DHT22;57113;48.680;8.890;2022-08-20T12:27:52;23.90;93.50
26304;DHT22;57113;48.680;8.890;2022-08-20T12:30:20;23.90;93.50
26304;DHT22;57113;48.680;8.890;2022-08-20T12:32:47;24.00;93.50
26304;DHT22;57113;48.680;8.890;2022-08-20T12:35:15;23.90;93.40
26304;DHT22;57113;48.680;8.890;2022-08-20T12:37:42;24.00;93.70
26304;DHT22;57113;48.680;8.890;2022-08-20T12:40:12;24.10;93.40
26304;DHT22;57113;48.680;8.890;2022-08-20T12:42:38;24.10;93.30
26304;DHT22;57113;48.680;8.890;2022-08-20T12:45:04;24.10;93.30
26304;DHT22;57113;48.680;8.890;2022-08-20T12:47:33;24.20;93.20
26304;DHT22;57113;48.680;8.890;2022-08-20T12:50:03;24.20;93.10
26304;DHT22;57113;48.680;8.890;2022-08-20T12:52:29;24.20;93.10
26304;DHT22;57113;48.680;8.890;2022-08-20T12:54:56;24.20;92.90
26304;DHT22;57113;48.680;8.890;2022-08-20T12:57:27;24.30;92.90
26304;DHT22;57113;48.680;8.890;2022-08-20T12:59:59;24.30;92.80
26304;DHT22;57113;48.680;8.890;2022-08-20T13:02:26;24.30;92.80
26304;DHT22;57113;48.680;8.890;2022-08-20T13:04:52;24.40;92.70
26304;DHT22;57113;48.680;8.890;2022-08-20T13:07:18;24.40;93.10
26304;DHT22;57113;48.680;8.890;2022-08-20T13:09:44;24.40;92.70
26304;DHT22;57113;48.680;8.890;2022-08-20T13:12:10;24.40;92.60
26304;DHT22;57113;48.680;8.890;2022-08-20T13:14:38;24.50;92.70
26304;DHT22;57113;48.680;8.890;2022-08-20T13:17:05;24.50;92.60
26304;DHT22;57113;48.680;8.890;2022-08-20T13:19:33;24.50;92.60
26304;DHT22;57113;48.680;8.890;2022-08-20T13:21:58;24.50;92.50
26304;DHT22;57113;48.680;8.890;2022-08-20T13:24:24;24.50;92.50
26304;DHT22;57113;48.680;8.890;2022-08-20T13:26:50;24.60;92.50
26304;DHT22;57113;48.680;8.890;2022-08-20T13:29:17;24.50;92.40
26304;DHT22;57113;48.680;8.890;2022-08-20T13:31:43;24.60;92.40
26304;DHT22;57113;48.680;8.890;2022-08-20T13:34:09;24.60;92.40
26304;DHT22;57113;48.680;8.890;2022-08-20T13:36:35;24.70;92.40
26304;DHT22;57113;48.680;8.890;2022-08-20T13:39:05;24.70;92.20
26304;DHT22;57113;48.680;8.890;2022-08-20T13:41:31;24.70;92.20
26304;DHT22;57113;48.680;8.890;2022-08-20T13:43:57;24.70;92.20
26304;DHT22;57113;48.680;8.890;2022-08-20T13:46:23;24.70;92.10
26304;DHT22;57113;48.680;8.890;2022-08-20T13:48:48;24.70;92.10
26304;DHT22;57113;48.680;8.890;2022-08-20T13:51:14;24.70;92.10
26304;DHT22;57113;48.680;8.890;2022-08-20T13:53:40;24.70;92.10
26304;DHT22;57113;48.680;8.890;2022-08-20T13:56:06;24.70;92.00
26304;DHT22;57113;48.680;8.890;2022-08-20T13:58:32;24.70;92.00
26304;DHT22;57113;48.680;8.890;2022-08-20T14:00:57;24.80;92.00
26304;DHT22;57113;48.680;8.890;2022-08-20T14:03:23;24.80;92.00
26304;DHT22;57113;48.680;8.890;2022-08-20T14:05:49;24.70;92.00
26304;DHT22;57113;48.680;8.890;2022-08-20T14:08:18;24.70;92.00
26304;DHT22;57113;48.680;8.890;2022-08-20T14:10:45;24.70;92.00
26304;DHT22;57113;48.680;8.890;2022-08-20T14:13:15;24.70;92.00
26304;DHT22;57113;48.680;8.890;2022-08-20T14:15:42;24.70;91.80
26304;DHT22;57113;48.680;8.890;2022-08-20T14:18:08;24.70;91.80
26304;DHT22;57113;48.680;8.890;2022-08-20T14:20:34;24.70;91.80
26304;DHT22;57113;48.680;8.890;2022-08-20T14:23:00;24.70;91.80
26304;DHT22;57113;48.680;8.890;2022-08-20T14:25:27;24.70;91.70
26304;DHT22;57113;48.680;8.890;2022-08-20T14:27:53;24.80;91.60
26304;DHT22;57113;48.680;8.890;2022-08-20T14:30:22;24.80;91.60
26304;DHT22;57113;48.680;8.890;2022-08-20T14:32:49;24.80;91.40
26304;DHT22;57113;48.680;8.890;2022-08-20T14:35:14;24.80;91.40
26304;DHT22;57113;48.680;8.890;2022-08-20T14:37:43;24.80;91.40
26304;DHT22;57113;48.680;8.890;2022-08-20T14:40:12;24.80;91.30
26304;DHT22;57113;48.680;8.890;2022-08-20T14:42:38;24.80;91.30
26304;DHT22;57113;48.680;8.890;2022-08-20T14:45:06;24.70;91.30
26304;DHT22;57113;48.680;8.890;2022-08-20T14:47:35;24.80;91.40
26304;DHT22;57113;48.680;8.890;2022-08-20T14:50:10;24.80;91.30
26304;DHT22;57113;48.680;8.890;2022-08-20T14:52:36;24.70;91.30
26304;DHT22;57113;48.680;8.890;2022-08-20T14:55:05;24.70;91.30
26304;DHT22;57113;48.680;8.890;2022-08-20T14:57:32;24.70;91.30
26304;DHT22;57113;48.680;8.890;2022-08-20T14:59:59;24.80;91.20
26304;DHT22;57113;48.680;8.890;2022-08-20T15:02:25;24.70;91.00
26304;DHT22;57113;48.680;8.890;2022-08-20T15:04:51;24.80;91.10
26304;DHT22;57113;48.680;8.890;2022-08-20T15:07:24;24.70;90.90
26304;DHT22;57113;48.680;8.890;2022-08-20T15:09:50;24.70;91.10
26304;DHT22;57113;48.680;8.890;2022-08-20T15:12:16;24.80;91.00
26304;DHT22;57113;48.680;8.890;2022-08-20T15:14:41;24.80;91.00
26304;DHT22;57113;48.680;8.890;2022-08-20T15:17:09;24.80;91.00
26304;DHT22;57113;48.680;8.890;2022-08-20T15:19:35;24.80;90.90
26304;DHT22;57113;48.680;8.890;2022-08-20T15:22:01;24.70;90.90
26304;DHT22;57113;48.680;8.890;2022-08-20T15:24:26;24.70;90.90
26304;DHT22;57113;48.680;8.890;2022-08-20T15:26:52;24.70;90.60
26304;DHT22;57113;48.680;8.890;2022-08-20T15:29:18;24.70;90.80
26304;DHT22;57113;48.680;8.890;2022-08-20T15:31:44;24.70;90.70
26304;DHT22;57113;48.680;8.890;2022-08-20T15:34:09;24.70;90.70
26304;DHT22;57113;48.680;8.890;2022-08-20T15:36:35;24.70;90.50
26304;DHT22;57113;48.680;8.890;2022-08-20T15:39:00;24.70;90.60
26304;DHT22;57113;48.680;8.890;2022-08-20T15:41:26;24.70;90.60
26304;DHT22;57113;48.680;8.890;2022-08-20T15:43:55;24.70;90.40
26304;DHT22;57113;48.680;8.890;2022-08-20T15:46:21;24.70;90.20